Time;durP1;ratioP1;P1;durP2;ratioP2;P2;SDS_P1;SDS_P2;PMS_P1;PMS_P2;Temp;Humidity;BMP_temperature;BMP_pressure;BME280_temperature;BME280_humidity;BME280_pressure;Samples;Min_cycle;Max_cycle;Signal;HPM_P1;HPM_P2
2022/08/19 00:00:30;;;;;;;3.47;1.95;;;18.70;99.90;;;;;;5061798;28;20021;-70
2022/08/19 00:02:56;;;;;;;6.53;1.98;;;18.70;99.90;;;;;;5061540;28;20071;-70
2022/08/19 00:05:22;;;;;;;2.65;1.80;;;18.70;99.90;;;;;;5061451;28;20024;-70
2022/08/19 00:07:49;;;;;;;2.63;1.63;;;18.60;99.90;;;;;;5061662;28;20021;-71
2022/08/19 00:10:15;;;;;;;6.47;2.55;;;18.60;99.90;;;;;;5061238;28;20491;-71
2022/08/19 00:12:41;;;;;;;3.28;1.95;;;18.50;99.90;;;;;;5043058;28;20021;-71
2022/08/19 00:15:12;;;;;;;4.57;1.55;;;18.50;99.90;;;;;;5061323;28;20096;-71
2022/08/19 00:17:42;;;;;;;3.72;2.33;;;18.50;99.90;;;;;;5061227;28;20020;-71
2022/08/19 00:20:12;;;;;;;6.47;2.70;;;18.50;99.90;;;;;;5061188;28;20044;-71
2022/08/19 00:22:38;;;;;;;3.60;1.98;;;18.50;99.90;;;;;;5061360;28;20044;-70
2022/08/19 00:25:07;;;;;;;3.35;2.35;;;18.50;99.90;;;;;;5060863;28;20064;-71
2022/08/19 00:27:34;;;;;;;8.00;2.40;;;18.50;99.90;;;;;;5061133;28;20021;-71
2022/08/19 00:29:59;;;;;;;5.07;2.50;;;18.50;99.90;;;;;;5061286;28;20056;-70
2022/08/19 00:32:25;;;;;;;4.45;2.47;;;18.50;99.90;;;;;;5060972;28;20138;-71
2022/08/19 00:34:53;;;;;;;4.45;2.28;;;18.50;99.90;;;;;;5061525;28;20021;-70
2022/08/19 00:37:22;;;;;;;5.47;2.80;;;18.50;99.90;;;;;;5061127;28;20087;-72
2022/08/19 00:39:48;;;;;;;3.08;2.00;;;18.50;99.90;;;;;;5060210;28;20103;-71
2022/08/19 00:42:15;;;;;;;4.63;2.72;;;18.50;99.90;;;;;;5061131;28;20079;-70
2022/08/19 00:44:41;;;;;;;5.18;2.97;;;18.50;99.90;;;;;;5061568;28;20029;-71
2022/08/19 00:47:07;;;;;;;7.50;3.00;;;18.50;99.90;;;;;;5061146;28;20036;-71
2022/08/19 00:50:03;;;;;;;9.50;2.70;;;18.50;99.90;;;;;;5061655;28;20021;-70
2022/08/19 00:52:34;;;;;;;7.32;3.28;;;18.50;99.90;;;;;;5036967;28;20041;-73
2022/08/19 00:55:02;;;;;;;7.80;2.88;;;18.60;99.90;;;;;;5060906;28;20697;-70
2022/08/19 00:57:37;;;;;;;5.25;2.42;;;18.60;99.90;;;;;;5063761;28;20025;-70
2022/08/19 01:00:08;;;;;;;4.65;2.78;;;18.60;99.90;;;;;;5064426;28;20025;-70
2022/08/19 01:02:34;;;;;;;6.28;2.70;;;18.60;99.90;;;;;;5065024;28;20111;-70
2022/08/19 01:05:04;;;;;;;5.22;2.97;;;18.50;99.90;;;;;;5065004;28;20056;-70
2022/08/19 01:07:34;;;;;;;5.13;2.47;;;18.50;99.90;;;;;;5064315;28;20025;-73
2022/08/19 01:10:01;;;;;;;4.13;2.17;;;18.50;99.90;;;;;;5046807;28;20036;-70
2022/08/19 01:12:27;;;;;;;3.65;2.42;;;18.50;99.90;;;;;;5064172;28;20312;-71
2022/08/19 01:14:54;;;;;;;13.32;2.40;;;18.50;99.90;;;;;;5064312;28;20017;-72
2022/08/19 01:17:21;;;;;;;7.38;3.20;;;18.50;99.90;;;;;;5064684;28;20076;-70
2022/08/19 01:19:47;;;;;;;3.03;1.98;;;18.50;99.90;;;;;;5063379;28;20021;-71
2022/08/19 01:22:38;;;;;;;9.27;3.05;;;18.40;99.90;;;;;;5064354;28;20029;-71
2022/08/19 01:25:05;;;;;;;5.43;2.75;;;18.40;99.90;;;;;;5064092;28;20124;-71
2022/08/19 01:27:41;;;;;;;5.20;2.58;;;18.50;99.90;;;;;;5064271;28;20583;-72
2022/08/19 01:30:08;;;;;;;9.10;3.08;;;18.50;99.90;;;;;;5064438;28;20061;-71
2022/08/19 01:32:34;;;;;;;4.57;2.78;;;18.50;99.90;;;;;;5064634;28;20033;-71
2022/08/19 01:35:02;;;;;;;4.53;2.58;;;18.40;99.90;;;;;;5064372;28;20382;-71
2022/08/19 01:37:29;;;;;;;4.28;2.47;;;18.40;99.90;;;;;;5064263;28;20048;-70
2022/08/19 01:39:56;;;;;;;5.28;2.88;;;18.30;99.90;;;;;;5064439;28;20028;-72
2022/08/19 01:42:22;;;;;;;11.13;2.80;;;18.40;99.90;;;;;;5064259;28;20037;-70
2022/08/19 01:44:47;;;;;;;7.93;2.90;;;18.50;99.90;;;;;;5064729;28;20033;-70
2022/08/19 01:47:13;;;;;;;3.72;2.53;;;18.40;99.90;;;;;;5063901;28;20067;-71
2022/08/19 01:49:39;;;;;;;5.30;2.42;;;18.50;99.90;;;;;;5063682;28;20032;-71
2022/08/19 01:52:06;;;;;;;5.88;2.75;;;18.40;99.90;;;;;;5063489;28;20128;-71
2022/08/19 01:54:32;;;;;;;4.55;1.98;;;18.50;99.90;;;;;;5063597;28;20137;-71
2022/08/19 01:57:06;;;;;;;5.78;2.70;;;18.30;99.90;;;;;;5063161;28;20056;-70
2022/08/19 01:59:33;;;;;;;4.93;2.40;;;18.30;99.90;;;;;;5064433;28;20025;-71
2022/08/19 02:01:59;;;;;;;11.85;3.22;;;18.30;99.90;;;;;;5063494;28;20167;-71
2022/08/19 02:04:25;;;;;;;5.38;3.05;;;18.30;99.90;;;;;;5063956;28;21584;-71
2022/08/19 02:06:51;;;;;;;6.50;3.50;;;18.30;99.90;;;;;;5063285;28;20461;-71
2022/08/19 02:09:16;;;;;;;8.20;3.40;;;18.30;99.90;;;;;;5062366;28;20029;-71
2022/08/19 02:11:42;;;;;;;4.63;2.90;;;18.30;99.90;;;;;;5063844;28;20017;-71
2022/08/19 02:14:08;;;;;;;7.07;3.15;;;18.40;99.90;;;;;;5063847;28;20048;-71
2022/08/19 02:16:36;;;;;;;7.53;2.58;;;18.40;99.90;;;;;;5044752;28;20113;-72
2022/08/19 02:19:03;;;;;;;7.07;3.13;;;18.40;99.90;;;;;;5063976;28;20032;-70
2022/08/19 02:21:29;;;;;;;6.25;3.00;;;18.30;99.90;;;;;;5062182;28;20021;-70
2022/08/19 02:23:55;;;;;;;5.88;3.20;;;18.30;99.90;;;;;;5062647;28;20057;-71
2022/08/19 02:26:21;;;;;;;6.55;3.17;;;18.40;99.90;;;;;;5063140;28;20033;-71
2022/08/19 02:28:48;;;;;;;5.90;2.83;;;18.30;99.90;;;;;;5063411;28;20096;-71
2022/08/19 02:31:17;;;;;;;4.53;2.75;;;18.30;99.90;;;;;;5061876;28;20040;-71
2022/08/19 02:33:44;;;;;;;6.38;3.10;;;18.30;99.90;;;;;;5061414;28;20094;-73
2022/08/19 02:36:13;;;;;;;3.72;2.38;;;18.30;99.90;;;;;;5062896;28;20033;-72
2022/08/19 02:38:39;;;;;;;5.80;3.45;;;18.30;99.90;;;;;;5062619;28;20074;-71
2022/08/19 02:41:09;;;;;;;8.63;3.30;;;18.30;99.90;;;;;;5063035;28;20086;-72
2022/08/19 02:43:36;;;;;;;6.93;3.65;;;18.20;99.90;;;;;;5062920;28;20033;-71
2022/08/19 02:46:10;;;;;;;12.43;3.33;;;18.30;99.90;;;;;;5062890;28;20039;-70
2022/08/19 02:48:35;;;;;;;5.18;3.60;;;18.30;99.90;;;;;;5063274;28;20052;-70
2022/08/19 02:51:01;;;;;;;7.78;3.22;;;18.30;99.90;;;;;;5062825;28;20075;-71
2022/08/19 02:53:27;;;;;;;5.95;2.67;;;18.30;99.90;;;;;;5062649;28;20021;-70
2022/08/19 02:55:53;;;;;;;5.45;2.60;;;18.30;99.90;;;;;;5062505;28;20056;-72
2022/08/19 02:58:21;;;;;;;10.43;3.00;;;18.20;99.90;;;;;;5061986;28;20025;-71
2022/08/19 03:00:50;;;;;;;6.13;2.13;;;18.30;99.90;;;;;;5062561;28;20599;-70
2022/08/19 03:03:17;;;;;;;5.78;2.92;;;18.30;99.90;;;;;;5062331;28;20045;-71
2022/08/19 03:05:46;;;;;;;3.42;2.50;;;18.30;99.90;;;;;;5062641;28;20021;-71
2022/08/19 03:08:12;;;;;;;5.40;3.22;;;18.30;99.90;;;;;;5062423;28;20135;-72
2022/08/19 03:10:46;;;;;;;17.15;2.92;;;18.30;99.90;;;;;;5062636;28;20083;-71
2022/08/19 03:13:17;;;;;;;7.95;3.30;;;18.30;99.90;;;;;;5061913;28;20025;-70
2022/08/19 03:15:45;;;;;;;4.68;2.45;;;18.20;99.90;;;;;;5062510;28;20048;-73
2022/08/19 03:18:11;;;;;;;4.25;2.83;;;18.20;99.90;;;;;;5062324;28;20024;-71
2022/08/19 03:20:45;;;;;;;8.10;3.08;;;18.20;99.90;;;;;;5061515;28;20037;-72
2022/08/19 03:23:12;;;;;;;4.32;2.72;;;18.30;99.90;;;;;;5061308;28;20047;-72
2022/08/19 03:25:47;;;;;;;6.47;2.95;;;18.30;99.90;;;;;;5062458;28;20033;-71
2022/08/19 03:28:14;;;;;;;3.50;2.40;;;18.20;99.90;;;;;;5062250;28;20040;-71
2022/08/19 03:30:43;;;;;;;5.53;3.08;;;18.20;99.90;;;;;;5062018;28;20049;-71
2022/08/19 03:33:11;;;;;;;4.47;2.10;;;18.20;99.90;;;;;;5061564;28;20028;-71
2022/08/19 03:35:37;;;;;;;4.45;2.38;;;18.20;99.90;;;;;;5062274;28;20104;-71
2022/08/19 03:38:06;;;;;;;5.25;1.98;;;18.20;99.90;;;;;;5062031;28;20594;-72
2022/08/19 03:40:34;;;;;;;4.20;2.03;;;18.20;99.90;;;;;;5061483;28;20043;-70
2022/08/19 03:43:01;;;;;;;3.78;2.28;;;18.20;99.90;;;;;;5061752;28;20075;-72
2022/08/19 03:45:27;;;;;;;3.58;2.05;;;18.20;99.90;;;;;;5062023;28;20096;-71
2022/08/19 03:47:53;;;;;;;1.65;1.27;;;18.20;99.90;;;;;;5061475;28;20021;-70
2022/08/19 03:50:19;;;;;;;7.50;2.15;;;18.30;99.90;;;;;;5044093;28;20033;-70
2022/08/19 03:52:50;;;;;;;6.25;2.28;;;18.10;99.90;;;;;;5061346;28;20024;-70
2022/08/19 03:55:16;;;;;;;10.73;2.53;;;18.30;99.90;;;;;;5061061;28;20434;-69
2022/08/19 03:57:41;;;;;;;2.78;1.48;;;18.20;99.90;;;;;;5061268;28;20027;-70
2022/08/19 04:00:09;;;;;;;2.90;1.63;;;18.20;99.90;;;;;;5043725;28;20521;-70
2022/08/19 04:02:36;;;;;;;1.85;1.20;;;18.20;99.90;;;;;;5061774;28;20043;-72
2022/08/19 04:05:01;;;;;;;8.32;1.75;;;18.20;99.90;;;;;;5061466;28;20033;-70
2022/08/19 04:07:27;;;;;;;1.52;1.20;;;18.10;99.90;;;;;;5061329;28;20033;-69
2022/08/19 04:09:53;;;;;;;3.17;1.73;;;18.10;99.90;;;;;;5060722;28;20032;-70
2022/08/19 04:12:20;;;;;;;2.70;1.65;;;18.10;99.90;;;;;;5043779;28;20025;-70
2022/08/19 04:14:45;;;;;;;7.18;1.92;;;18.10;99.90;;;;;;5060784;28;20051;-69
2022/08/19 04:17:13;;;;;;;3.75;2.28;;;18.00;99.90;;;;;;5061555;28;20028;-70
2022/08/19 04:19:40;;;;;;;3.40;1.95;;;18.00;99.90;;;;;;5061476;28;20025;-69
2022/08/19 04:22:06;;;;;;;2.50;1.75;;;18.00;99.90;;;;;;5060767;28;20025;-71
2022/08/19 04:24:33;;;;;;;2.10;1.83;;;17.90;99.90;;;;;;5061623;28;20060;-70
2022/08/19 04:27:01;;;;;;;4.60;2.17;;;17.90;99.90;;;;;;5060944;28;20033;-70
2022/08/19 04:29:27;;;;;;;3.75;1.80;;;17.90;99.90;;;;;;5059498;28;20035;-70
2022/08/19 04:31:55;;;;;;;6.30;2.58;;;18.00;99.90;;;;;;5060441;28;20134;-70
2022/08/19 04:34:23;;;;;;;3.58;1.80;;;18.00;99.90;;;;;;5060208;28;20099;-70
2022/08/19 04:36:50;;;;;;;7.28;2.42;;;17.90;99.90;;;;;;5061313;28;20037;-70
2022/08/19 04:39:18;;;;;;;4.25;2.05;;;;;;;;;;5060908;28;20044;-70
2022/08/19 04:44:30;;;;;;;6.18;2.60;;;;;;;;;;5060162;28;20036;-70
2022/08/19 04:46:57;;;;;;;4.78;2.28;;;;;;;;;;5061146;28;20033;-70
2022/08/19 04:49:23;;;;;;;8.75;3.33;;;;;;;;;;5060405;28;20047;-71
2022/08/19 04:51:52;;;;;;;3.33;2.30;;;;;;;;;;5043053;28;20033;-73
2022/08/19 04:54:22;;;;;;;4.15;2.38;;;;;;;;;;5060743;28;20010;-71
2022/08/19 04:56:49;;;;;;;9.73;2.35;;;;;;;;;;5060554;28;20048;-71
2022/08/19 04:59:15;;;;;;;6.75;3.10;;;;;;;;;;5061334;28;20037;-70
2022/08/19 05:01:43;;;;;;;5.28;2.75;;;;;;;;;;5042920;28;20436;-71
2022/08/19 05:04:09;;;;;;;5.22;2.35;;;;;;;;;;5057995;28;20033;-71
2022/08/19 05:06:36;;;;;;;5.05;2.92;;;;;;;;;;5059448;28;20056;-73
2022/08/19 05:09:04;;;;;;;3.47;1.92;;;;;;;;;;5060336;28;20929;-70
2022/08/19 05:11:53;;;;;;;4.75;2.53;;;;;;;;;;5060479;28;20037;-70
2022/08/19 05:14:20;;;;;;;8.95;3.08;;;;;;;;;;5042677;28;20025;-70
2022/08/19 05:16:46;;;;;;;5.68;2.85;;;;;;;;;;5060856;28;20029;-72
2022/08/19 05:24:45;;;;;;;6.97;3.20;;;;;;;;;;5057486;28;19996;-74
2022/08/19 05:27:15;;;;;;;10.13;3.20;;;;;;;;;;5057222;28;20533;-71
2022/08/19 05:29:41;;;;;;;5.47;4.13;;;;;;;;;;5058466;28;20035;-72
2022/08/19 05:32:10;;;;;;;6.72;3.55;;;;;;;;;;5057712;28;20394;-72
2022/08/19 05:34:38;;;;;;;5.30;3.17;;;;;;;;;;5060876;28;20033;-71
2022/08/19 05:37:07;;;;;;;4.15;2.95;;;;;;;;;;5059893;28;20040;-71
2022/08/19 05:39:34;;;;;;;8.77;4.28;;;;;;;;;;5060553;28;20025;-70
2022/08/19 05:42:01;;;;;;;4.80;3.70;;;;;;;;;;5059908;28;20090;-71
2022/08/19 05:44:31;;;;;;;7.53;3.70;;;;;;;;;;5046080;28;20025;-70
2022/08/19 05:46:59;;;;;;;8.35;3.80;;;;;;;;;;5063566;28;20013;-72
2022/08/19 05:49:26;;;;;;;11.77;3.63;;;;;;;;;;5063851;28;20035;-71
2022/08/19 05:51:52;;;;;;;7.80;4.22;;;;;;;;;;5063245;28;20077;-71
2022/08/19 05:54:19;;;;;;;9.23;3.45;;;;;;;;;;5061798;28;20029;-70
2022/08/19 05:56:47;;;;;;;6.85;3.08;;;;;;;;;;5063532;28;20029;-71
2022/08/19 05:59:13;;;;;;;5.32;3.47;;;;;;;;;;5063000;28;20032;-70
2022/08/19 06:01:40;;;;;;;8.20;2.88;;;;;;;;;;5062479;28;20021;-72
2022/08/19 06:04:06;;;;;;;11.27;4.45;;;;;;;;;;5060325;28;20037;-72
2022/08/19 06:06:34;;;;;;;7.93;3.70;;;;;;;;;;5062300;28;20146;-71
2022/08/19 06:09:00;;;;;;;5.93;3.60;;;;;;;;;;5063720;28;20017;-71
2022/08/19 06:11:36;;;;;;;7.32;3.90;;;;;;;;;;5060467;28;20033;-73
2022/08/19 06:14:04;;;;;;;6.97;3.60;;;;;;;;;;5045242;28;20048;-72
2022/08/19 06:16:33;;;;;;;11.85;4.60;;;;;;;;;;5063315;28;20385;-71
2022/08/19 06:19:00;;;;;;;5.57;3.72;;;;;;;;;;5063678;28;20021;-72
2022/08/19 06:21:27;;;;;;;16.17;4.55;;;;;;;;;;5045321;28;20045;-73
2022/08/19 06:23:54;;;;;;;7.45;3.13;;;;;;;;;;5061847;28;20032;-71
2022/08/19 06:26:20;;;;;;;5.90;2.72;;;;;;;;;;5063112;28;20047;-73
2022/08/19 06:28:47;;;;;;;7.90;3.50;;;;;;;;;;5060288;28;20032;-72
2022/08/19 06:31:17;;;;;;;5.53;2.83;;;;;;;;;;5062125;28;20049;-72
2022/08/19 06:33:49;;;;;;;5.35;2.45;;;;;;;;;;5061732;28;20107;-72
2022/08/19 06:36:20;;;;;;;9.90;3.28;;;;;;;;;;5062352;28;20028;-73
2022/08/19 06:38:45;;;;;;;8.02;2.83;;;;;;;;;;5062612;28;20044;-72
2022/08/19 06:41:12;;;;;;;4.72;2.88;;;;;;;;;;5061379;28;20562;-73
2022/08/19 06:43:38;;;;;;;4.15;3.05;;;;;;;;;;5061334;28;20041;-74
2022/08/19 06:46:04;;;;;;;4.70;2.47;;;;;;;;;;5063054;28;20033;-72
2022/08/19 06:48:31;;;;;;;4.80;2.72;;;;;;;;;;5061092;28;20092;-72
2022/08/19 06:50:57;;;;;;;6.28;2.95;;;;;;;;;;5059442;28;20100;-73
2022/08/19 06:53:23;;;;;;;6.00;2.63;;;;;;;;;;5061560;28;20500;-73
2022/08/19 06:55:54;;;;;;;4.30;2.90;;;;;;;;;;5057150;28;20057;-74
2022/08/19 06:58:20;;;;;;;5.03;2.60;;;;;;;;;;5061461;28;20023;-72
2022/08/19 07:00:46;;;;;;;5.28;2.95;;;;;;;;;;5061395;28;20044;-73
2022/08/19 07:03:12;;;;;;;9.75;3.40;;;;;;;;;;5043880;28;20036;-73
2022/08/19 07:05:41;;;;;;;6.85;3.78;;;;;;;;;;5055414;28;20486;-72
2022/08/19 07:08:09;;;;;;;4.25;2.65;;;;;;;;;;5041518;28;20025;-73
2022/08/19 07:10:36;;;;;;;10.77;3.25;;;;;;;;;;5057507;28;20052;-74
2022/08/19 07:13:03;;;;;;;13.90;3.58;;;;;;;;;;5059319;28;20086;-72
2022/08/19 07:15:30;;;;;;;4.22;2.55;;;;;;;;;;5040234;28;20021;-72
2022/08/19 07:17:56;;;;;;;5.70;3.33;;;;;;;;;;5061204;28;20020;-73
2022/08/19 07:20:23;;;;;;;5.95;2.83;;;;;;;;;;5042940;28;20021;-73
2022/08/19 07:22:49;;;;;;;6.47;2.80;;;17.90;99.90;;;;;;5059332;28;20040;-74
2022/08/19 07:25:18;;;;;;;5.47;2.80;;;19.30;99.90;;;;;;5060984;28;20020;-73
2022/08/19 07:27:44;;;;;;;3.10;1.73;;;19.30;99.90;;;;;;5057292;28;20092;-74
2022/08/19 07:30:11;;;;;;;4.57;2.33;;;19.50;99.90;;;;;;5056988;28;21349;-74
2022/08/19 07:32:37;;;;;;;4.30;2.55;;;19.50;99.90;;;;;;5058901;28;20052;-73
2022/08/19 07:35:04;;;;;;;2.85;1.77;;;19.70;99.90;;;;;;5041933;28;20025;-72
2022/08/19 07:37:30;;;;;;;3.53;2.05;;;19.70;99.90;;;;;;5060928;28;20021;-72
2022/08/19 07:39:56;;;;;;;5.70;2.22;;;19.70;99.90;;;;;;5038967;28;20043;-75
2022/08/19 07:42:22;;;;;;;3.47;1.95;;;19.70;99.90;;;;;;5056910;28;20057;-72
2022/08/19 07:44:47;;;;;;;5.38;1.85;;;19.80;99.90;;;;;;5059693;28;20009;-73
2022/08/19 07:47:15;;;;;;;4.82;1.95;;;19.80;99.90;;;;;;5059958;28;20025;-73
2022/08/19 07:49:41;;;;;;;4.05;1.90;;;19.80;99.90;;;;;;5059511;28;20029;-74
2022/08/19 07:52:09;;;;;;;6.25;2.58;;;19.90;99.90;;;;;;5061597;28;20025;-74
2022/08/19 07:54:37;;;;;;;4.03;2.05;;;19.90;99.90;;;;;;5059193;28;20068;-73
2022/08/19 07:57:04;;;;;;;6.13;2.35;;;19.80;99.90;;;;;;5057982;28;20036;-73
2022/08/19 07:59:30;;;;;;;2.88;1.80;;;19.80;99.90;;;;;;5042278;28;20025;-72
2022/08/19 08:01:56;;;;;;;1.60;1.23;;;19.70;99.90;;;;;;5061640;28;20036;-73
2022/08/19 08:09:53;;;;;;;2.95;1.60;;;19.60;99.90;;;;;;5061887;28;20044;-73
2022/08/19 08:12:28;;;;;;;5.28;1.85;;;19.70;99.90;;;;;;5059977;28;20025;-74
2022/08/19 08:14:56;;;;;;;4.57;2.05;;;19.80;99.90;;;;;;5060909;28;20409;-72
2022/08/19 08:17:25;;;;;;;5.72;1.75;;;20.00;99.90;;;;;;5060358;28;20033;-73
2022/08/19 08:19:51;;;;;;;3.08;1.50;;;20.10;99.90;;;;;;5060656;28;20021;-74
2022/08/19 08:25:11;;;;;;;3.45;1.75;;;20.10;99.90;;;;;;5055280;28;20036;-73
2022/08/19 08:27:39;;;;;;;2.13;1.40;;;20.10;99.90;;;;;;5061263;28;20089;-75
2022/08/19 08:30:13;;;;;;;3.42;1.60;;;20.10;99.90;;;;;;5042221;28;20024;-73
2022/08/19 08:32:39;;;;;;;2.25;1.02;;;20.10;99.90;;;;;;5041869;28;20033;-72
2022/08/19 08:35:09;;;;;;;6.38;1.70;;;20.10;99.90;;;;;;5058432;28;20040;-73
2022/08/19 08:37:35;;;;;;;6.15;1.63;;;20.20;99.90;;;;;;5058491;28;20063;-72
2022/08/19 08:40:27;;;;;;;1.77;1.27;;;20.20;99.90;;;;;;5060407;28;20028;-74
2022/08/19 08:43:13;;;;;;;3.35;1.35;;;20.30;99.90;;;;;;5048489;28;20072;-73
2022/08/19 08:46:00;;;;;;;1.88;1.23;;;20.40;99.90;;;;;;5044850;28;20044;-73
2022/08/19 08:49:08;;;;;;;3.00;1.13;;;20.50;99.90;;;;;;5054308;28;20120;-74
2022/08/19 08:51:46;;;;;;;1.92;0.98;;;20.60;99.90;;;;;;5038852;28;20052;-72
2022/08/19 08:54:14;;;;;;;2.00;1.33;;;20.70;99.90;;;;;;5058987;28;20036;-71
2022/08/19 08:56:45;;;;;;;1.40;0.80;;;20.90;99.90;;;;;;5059384;28;20036;-74
2022/08/19 08:59:20;;;;;;;5.22;1.50;;;21.00;99.90;;;;;;5059109;28;20040;-72
2022/08/19 09:01:46;;;;;;;1.48;0.98;;;21.10;99.90;;;;;;5057882;28;20045;-72
2022/08/19 09:04:13;;;;;;;3.17;1.60;;;21.10;99.90;;;;;;5060158;28;20048;-72
2022/08/19 09:07:04;;;;;;;2.50;1.33;;;21.20;99.90;;;;;;5042262;28;20021;-73
2022/08/19 09:09:39;;;;;;;1.23;0.98;;;21.20;99.90;;;;;;5058451;28;20574;-74
2022/08/19 09:12:22;;;;;;;1.80;0.93;;;21.20;99.90;;;;;;5060542;28;20025;-75
2022/08/19 09:14:53;;;;;;;1.88;0.85;;;21.30;99.90;;;;;;5059418;28;20025;-73
2022/08/19 09:17:30;;;;;;;3.35;0.65;;;21.30;99.90;;;;;;5061022;28;20032;-74
2022/08/19 09:20:06;;;;;;;1.88;0.98;;;21.30;99.90;;;;;;5045769;28;20028;-73
2022/08/19 09:22:32;;;;;;;1.50;1.00;;;21.30;99.90;;;;;;5061762;28;20029;-74
2022/08/19 09:24:59;;;;;;;1.33;0.98;;;21.30;99.90;;;;;;5044757;28;20048;-74
2022/08/19 09:27:25;;;;;;;2.33;1.45;;;21.30;99.90;;;;;;5063169;28;20198;-71
2022/08/19 09:29:53;;;;;;;2.33;1.65;;;21.30;99.90;;;;;;5063103;28;20024;-73
2022/08/19 09:32:19;;;;;;;7.53;1.20;;;21.40;99.90;;;;;;5063848;28;20025;-74
2022/08/19 09:34:45;;;;;;;3.00;1.42;;;21.50;99.90;;;;;;5063162;28;20017;-74
2022/08/19 09:37:11;;;;;;;1.10;0.88;;;21.60;99.90;;;;;;5063344;28;20053;-72
2022/08/19 09:39:38;;;;;;;1.45;1.02;;;21.70;99.90;;;;;;5045110;28;20089;-72
2022/08/19 09:42:08;;;;;;;2.70;1.60;;;21.90;99.90;;;;;;5063239;28;20519;-73
2022/08/19 09:44:34;;;;;;;2.15;1.05;;;22.00;99.90;;;;;;5063798;28;20029;-74
2022/08/19 09:47:00;;;;;;;1.27;0.82;;;22.10;99.90;;;;;;5061200;28;20432;-73
2022/08/19 09:49:25;;;;;;;2.22;0.90;;;22.20;99.90;;;;;;5061399;28;20086;-72
2022/08/19 09:51:55;;;;;;;1.50;1.10;;;22.30;99.90;;;;;;5061240;28;20057;-72
2022/08/19 09:54:21;;;;;;;1.77;0.90;;;22.50;99.90;;;;;;5062828;28;20060;-73
2022/08/19 09:56:47;;;;;;;1.20;0.80;;;22.60;99.90;;;;;;5060542;28;20052;-75
2022/08/19 09:59:13;;;;;;;1.63;1.10;;;22.60;99.90;;;;;;5063429;28;20024;-74
2022/08/19 10:01:39;;;;;;;2.38;0.93;;;22.80;99.90;;;;;;5062042;28;20060;-73
2022/08/19 10:04:08;;;;;;;3.33;1.30;;;22.90;99.90;;;;;;5044793;28;20136;-74
2022/08/19 10:06:35;;;;;;;2.55;1.20;;;23.00;99.90;;;;;;5061635;28;20028;-74
2022/08/19 10:09:04;;;;;;;1.80;1.08;;;23.10;99.90;;;;;;5063403;28;20029;-72
2022/08/19 10:11:29;;;;;;;1.75;1.15;;;23.10;99.90;;;;;;5062301;28;20029;-73
2022/08/19 10:13:55;;;;;;;3.15;1.15;;;23.20;99.90;;;;;;5059041;28;20455;-72
2022/08/19 10:16:23;;;;;;;1.27;1.05;;;23.30;99.90;;;;;;5059887;28;20152;-72
2022/08/19 10:18:49;;;;;;;1.20;1.05;;;23.40;99.90;;;;;;5061698;28;20033;-72
2022/08/19 10:21:27;;;;;;;2.17;0.88;;;23.40;99.90;;;;;;5061265;28;20056;-73
2022/08/19 10:23:57;;;;;;;1.05;0.85;;;23.50;99.90;;;;;;5062448;28;20036;-72
2022/08/19 10:26:30;;;;;;;1.10;0.88;;;23.60;99.90;;;;;;5062225;28;20021;-72
2022/08/19 10:28:56;;;;;;;2.80;0.75;;;23.70;99.90;;;;;;5043744;28;20033;-73
2022/08/19 10:31:25;;;;;;;1.63;0.88;;;23.90;99.90;;;;;;5043698;28;20021;-72
2022/08/19 10:33:57;;;;;;;1.92;0.68;;;23.90;99.90;;;;;;5061095;28;20021;-72
2022/08/19 10:36:24;;;;;;;1.38;0.82;;;24.00;99.90;;;;;;5061373;28;20017;-73
2022/08/19 10:38:52;;;;;;;1.27;0.85;;;24.10;99.90;;;;;;5042960;28;20025;-72
2022/08/19 10:41:22;;;;;;;2.50;1.23;;;24.30;99.90;;;;;;5060480;28;20033;-72
2022/08/19 10:43:52;;;;;;;1.92;1.20;;;24.30;99.90;;;;;;5058640;28;20041;-74
2022/08/19 10:46:17;;;;;;;7.65;1.20;;;24.40;99.90;;;;;;5059289;28;20045;-73
2022/08/19 10:48:44;;;;;;;1.45;0.80;;;24.50;99.90;;;;;;5062480;28;20021;-70
2022/08/19 10:53:57;;;;;;;0.60;0.50;;;24.60;99.90;;;;;;5057978;28;21313;-73
2022/08/19 10:59:09;;;;;;;1.92;0.75;;;24.90;99.90;;;;;;5060053;28;20044;-72
2022/08/19 11:01:35;;;;;;;0.93;0.65;;;25.00;99.90;;;;;;5057879;28;20037;-72
2022/08/19 11:04:03;;;;;;;1.20;0.93;;;25.20;99.90;;;;;;5040572;28;20412;-71
2022/08/19 11:06:29;;;;;;;0.80;0.60;;;25.30;99.90;;;;;;5060614;28;20089;-73
2022/08/19 11:08:56;;;;;;;1.30;0.80;;;25.40;99.90;;;;;;5060322;28;20021;-72
2022/08/19 11:11:22;;;;;;;0.90;0.70;;;25.60;99.90;;;;;;5059910;28;20043;-71
2022/08/19 11:13:49;;;;;;;7.22;0.75;;;25.80;99.90;;;;;;5060435;28;20508;-74
2022/08/19 11:16:19;;;;;;;1.05;0.60;;;25.90;99.90;;;;;;5061556;28;20031;-72
2022/08/19 11:18:48;;;;;;;1.05;0.52;;;26.10;99.90;;;;;;5061014;28;20479;-73
2022/08/19 11:21:18;;;;;;;0.90;0.63;;;26.20;99.90;;;;;;5039955;28;20025;-73
2022/08/19 11:23:46;;;;;;;0.73;0.50;;;26.30;99.90;;;;;;5057497;28;20477;-71
2022/08/19 11:26:13;;;;;;;0.70;0.43;;;26.50;99.90;;;;;;5058772;28;20100;-72
2022/08/19 11:28:39;;;;;;;2.03;0.63;;;26.70;99.90;;;;;;5041914;28;20028;-71
2022/08/19 11:31:19;;;;;;;0.60;0.45;;;26.70;99.90;;;;;;5060543;28;20032;-73
2022/08/19 11:33:45;;;;;;;0.60;0.50;;;26.80;99.90;;;;;;5058058;28;20029;-72
2022/08/19 11:36:12;;;;;;;0.77;0.40;;;26.90;99.90;;;;;;5056966;28;20026;-74
2022/08/19 11:38:38;;;;;;;1.98;0.50;;;27.00;99.90;;;;;;5057714;28;20020;-72
2022/08/19 11:41:07;;;;;;;0.73;0.47;;;27.10;99.90;;;;;;5039871;28;20035;-71
2022/08/19 11:43:33;;;;;;;0.85;0.52;;;27.20;99.90;;;;;;5039187;28;20472;-73
2022/08/19 11:46:00;;;;;;;2.17;0.90;;;27.30;99.90;;;;;;5059681;28;20047;-72
2022/08/19 11:48:25;;;;;;;1.30;0.75;;;27.40;99.90;;;;;;5059899;28;20167;-72
2022/08/19 11:50:55;;;;;;;5.97;0.82;;;27.30;99.90;;;;;;5060813;28;20025;-72
2022/08/19 11:53:20;;;;;;;0.68;0.50;;;27.30;99.90;;;;;;5060962;28;20464;-72
2022/08/19 11:55:47;;;;;;;0.45;0.40;;;27.20;99.90;;;;;;5060990;28;20040;-71
2022/08/19 11:58:15;;;;;;;0.50;0.35;;;27.10;99.90;;;;;;5061450;28;20047;-72
2022/08/19 12:00:41;;;;;;;2.10;0.38;;;27.10;99.90;;;;;;5058979;28;20036;-72
2022/08/19 12:03:08;;;;;;;0.73;0.73;;;27.10;99.90;;;;;;5059399;28;20132;-73
2022/08/19 12:05:37;;;;;;;0.38;0.30;;;27.10;99.90;;;;;;5060187;28;20493;-73
2022/08/19 12:08:03;;;;;;;1.35;0.82;;;27.20;99.90;;;;;;5060925;28;20021;-73
2022/08/19 12:10:28;;;;;;;0.50;0.43;;;27.30;99.90;;;;;;5059083;28;20017;-72
2022/08/19 12:12:54;;;;;;;1.27;0.68;;;27.40;99.90;;;;;;5042379;28;20028;-72
2022/08/19 12:15:20;;;;;;;2.17;0.95;;;27.50;99.90;;;;;;5060726;28;20037;-71
2022/08/19 12:17:45;;;;;;;0.88;0.57;;;27.60;99.90;;;;;;5053975;28;20033;-72
2022/08/19 12:20:13;;;;;;;1.65;0.70;;;27.80;99.90;;;;;;5058202;28;20112;-77
2022/08/19 12:22:41;;;;;;;0.60;0.50;;;28.00;99.90;;;;;;5059276;28;20048;-73
2022/08/19 12:25:08;;;;;;;0.50;0.50;;;28.00;99.90;;;;;;5059597;28;20021;-71
2022/08/19 12:27:35;;;;;;;5.07;0.95;;;28.00;99.90;;;;;;5060462;28;20032;-72
2022/08/19 12:30:02;;;;;;;0.45;0.45;;;28.00;99.90;;;;;;5060116;28;20742;-72
2022/08/19 12:32:28;;;;;;;0.30;0.30;;;27.90;99.90;;;;;;5060028;28;20025;-72
2022/08/19 12:34:54;;;;;;;1.08;0.32;;;27.70;99.90;;;;;;5058884;28;20029;-73
2022/08/19 12:37:20;;;;;;;2.10;0.80;;;27.60;99.90;;;;;;5060271;28;20096;-71
2022/08/19 12:39:46;;;;;;;0.40;0.38;;;27.70;99.90;;;;;;5059302;28;20029;-72
2022/08/19 12:42:13;;;;;;;0.90;0.55;;;27.90;99.90;;;;;;5059728;28;20025;-71
2022/08/19 12:44:41;;;;;;;0.93;0.43;;;28.30;99.90;;;;;;5059557;28;20048;-72
2022/08/19 12:47:07;;;;;;;0.22;0.20;;;28.50;99.90;;;;;;5058976;28;20025;-72
2022/08/19 12:49:33;;;;;;;0.65;0.30;;;28.70;99.90;;;;;;5059950;28;20044;-72
2022/08/19 12:52:03;;;;;;;5.85;0.43;;;28.70;99.90;;;;;;5059430;28;20025;-71
2022/08/19 12:54:30;;;;;;;0.63;0.20;;;28.80;99.90;;;;;;5062611;28;20079;-72
2022/08/19 12:56:56;;;;;;;1.80;0.57;;;28.90;99.90;;;;;;5063355;28;20394;-72
2022/08/19 12:59:22;;;;;;;0.20;0.15;;;28.90;99.90;;;;;;5063050;28;20028;-72
2022/08/19 13:01:48;;;;;;;0.52;0.38;;;28.90;99.90;;;;;;5063124;28;20021;-73
2022/08/19 13:04:14;;;;;;;1.17;0.28;;;28.90;99.90;;;;;;5065195;28;20428;-75
2022/08/19 13:06:39;;;;;;;0.35;0.22;;;29.00;99.90;;;;;;5058756;28;20037;-71
2022/08/19 13:09:05;;;;;;;0.75;0.40;;;29.10;99.90;;;;;;5061570;28;20069;-72
2022/08/19 13:11:33;;;;;;;0.13;0.10;;;29.30;99.90;;;;;;5062754;28;20108;-73
2022/08/19 13:13:59;;;;;;;0.32;0.20;;;29.40;99.90;;;;;;5062688;28;20036;-73
2022/08/19 13:16:27;;;;;;;0.52;0.20;;;29.50;99.90;;;;;;5063090;28;20056;-73
2022/08/19 13:18:54;;;;;;;0.15;0.10;;;29.60;99.90;;;;;;5060046;28;20025;-72
2022/08/19 13:21:22;;;;;;;0.63;0.30;;;29.80;99.90;;;;;;5062653;28;20033;-73
2022/08/19 13:23:48;;;;;;;0.20;0.20;;;29.70;99.90;;;;;;5063365;28;20033;-74
2022/08/19 13:26:15;;;;;;;0.10;0.10;;;29.70;99.90;;;;;;5064367;28;20025;-74
2022/08/19 13:34:14;;;;;;;1.20;0.25;;;30.00;99.90;;;;;;5064376;28;20053;-73
2022/08/19 13:36:40;;;;;;;0.10;0.10;;;30.10;99.90;;;;;;5064378;28;20056;-73
2022/08/19 13:39:07;;;;;;;0.43;0.25;;;30.30;99.90;;;;;;5063082;28;20045;-72